Time;durP1;ratioP1;P1;durP2;ratioP2;P2;SDS_P1;SDS_P2;PMS_P1;PMS_P2;Temp;Humidity;BMP_temperature;BMP_pressure;BME280_temperature;BME280_humidity;BME280_pressure;Samples;Min_cycle;Max_cycle;Signal;HPM_P1;HPM_P2
2022/04/09 00:02:24;;;;;;;;;;;1.60;99.90;;;;;;4952067;29;19939;-66
2022/04/09 00:04:52;;;;;;;;;;;1.70;99.90;;;;;;4950230;29;19931;-66
2022/04/09 00:07:19;;;;;;;;;;;1.70;99.90;;;;;;4948549;29;19957;-66
2022/04/09 00:09:47;;;;;;;;;;;1.60;99.90;;;;;;4951347;28;20327;-66
2022/04/09 00:12:14;;;;;;;;;;;1.60;99.90;;;;;;4949436;29;20271;-66
2022/04/09 00:14:41;;;;;;;;;;;1.60;99.90;;;;;;4953627;28;19927;-65
2022/04/09 00:17:09;;;;;;;;;;;1.60;99.90;;;;;;4954889;28;19942;-66
2022/04/09 00:19:36;;;;;;;;;;;1.50;99.90;;;;;;4938391;29;19931;-66
2022/04/09 00:22:04;;;;;;;;;;;1.60;99.90;;;;;;4954043;28;19930;-66
2022/04/09 00:24:32;;;;;;;;;;;1.50;99.90;;;;;;4953060;28;20013;-66
2022/04/09 00:26:59;;;;;;;;;;;1.50;99.90;;;;;;4953259;28;19926;-65
2022/04/09 00:29:27;;;;;;;;;;;1.50;99.90;;;;;;4954128;28;19973;-65
2022/04/09 00:31:54;;;;;;;;;;;1.50;99.90;;;;;;4953642;28;19930;-65
2022/04/09 00:34:22;;;;;;;;;;;1.50;99.90;;;;;;4949534;29;20310;-66
2022/04/09 00:36:49;;;;;;;;;;;1.50;99.90;;;;;;4950741;29;20358;-65
2022/04/09 00:39:18;;;;;;;;;;;1.50;99.90;;;;;;4951640;28;19927;-64
2022/04/09 00:41:47;;;;;;;;;;;1.50;99.90;;;;;;4947582;29;19930;-65
2022/04/09 00:44:18;;;;;;;;;;;1.40;99.90;;;;;;4955022;28;19937;-66
2022/04/09 00:46:45;;;;;;;;;;;1.50;99.90;;;;;;4950575;28;19931;-66
2022/04/09 00:49:13;;;;;;;;;;;1.40;99.90;;;;;;4949573;29;20396;-65
2022/04/09 00:51:41;;;;;;;;;;;1.40;99.90;;;;;;4950064;29;20013;-65
2022/04/09 00:54:12;;;;;;;;;;;1.50;99.90;;;;;;4950554;29;19934;-65
2022/04/09 00:56:41;;;;;;;;;;;1.40;99.90;;;;;;4945740;29;19938;-65
2022/04/09 00:59:11;;;;;;;;;;;1.30;99.90;;;;;;4960630;28;20414;-65
2022/04/09 01:01:40;;;;;;;;;;;1.30;99.90;;;;;;4953474;28;20525;-65
2022/04/09 01:04:08;;;;;;;;;;;1.30;99.90;;;;;;4952807;29;20437;-66
2022/04/09 01:06:35;;;;;;;;;;;1.30;99.90;;;;;;4953104;29;20030;-66
2022/04/09 01:09:04;;;;;;;;;;;1.30;99.90;;;;;;4952396;28;19931;-66
2022/04/09 01:11:31;;;;;;;;;;;1.30;99.90;;;;;;4953104;28;19985;-66
2022/04/09 01:13:59;;;;;;;;;;;1.30;99.90;;;;;;4952912;29;19947;-63
2022/04/09 01:16:29;;;;;;;;;;;1.30;99.90;;;;;;4952531;29;19981;-66
2022/04/09 01:18:59;;;;;;;;;;;1.40;99.90;;;;;;4948896;29;20038;-66
2022/04/09 01:21:29;;;;;;;;;;;1.40;99.90;;;;;;4949991;29;19934;-64
2022/04/09 01:24:01;;;;;;;;;;;1.40;99.90;;;;;;4949589;29;20323;-66
2022/04/09 01:26:28;;;;;;;;;;;1.40;99.90;;;;;;4943905;28;19930;-65
2022/04/09 01:28:56;;;;;;;;;;;1.40;99.90;;;;;;4944265;29;20412;-67
2022/04/09 01:31:24;;;;;;;;;;;1.40;99.90;;;;;;4949681;29;20392;-67
2022/04/09 01:33:51;;;;;;;;;;;1.40;99.90;;;;;;4948881;29;19937;-66
2022/04/09 01:36:18;;;;;;;;;;;1.40;99.90;;;;;;4948243;29;19998;-66
2022/04/09 01:38:46;;;;;;;;;;;1.40;99.90;;;;;;4941873;29;19938;-67
2022/04/09 01:41:13;;;;;;;;;;;1.40;99.90;;;;;;4952548;28;19931;-68
2022/04/09 01:43:52;;;;;;;;;;;1.40;99.90;;;;;;4952545;29;19926;-66
2022/04/09 01:46:20;;;;;;;;;;;1.40;99.90;;;;;;4933645;29;19930;-67
2022/04/09 01:48:48;;;;;;;;;;;1.50;99.90;;;;;;4936569;29;19958;-67
2022/04/09 01:51:15;;;;;;;;;;;1.50;99.90;;;;;;4933128;29;20022;-68
2022/04/09 01:53:42;;;;;;;;;;;1.60;99.90;;;;;;4951934;29;19938;-68
2022/04/09 01:56:09;;;;;;;;;;;1.60;99.90;;;;;;4967772;28;19935;-67
2022/04/09 01:58:40;;;;;;;;;;;1.60;99.90;;;;;;4951460;29;19973;-67
2022/04/09 02:01:08;;;;;;;;;;;1.60;99.90;;;;;;4949432;29;20028;-67
2022/04/09 02:03:35;;;;;;;;;;;1.60;99.90;;;;;;4951032;28;19942;-66
2022/04/09 02:06:02;;;;;;;;;;;1.70;99.90;;;;;;4948618;29;20457;-67
2022/04/09 02:08:32;;;;;;;;;;;1.70;99.90;;;;;;4951267;29;20283;-67
2022/04/09 02:11:00;;;;;;;;;;;1.80;99.90;;;;;;4950407;29;19930;-66
2022/04/09 02:13:28;;;;;;;;;;;1.80;99.90;;;;;;4936391;28;20545;-66
2022/04/09 02:15:57;;;;;;;;;;;1.80;99.90;;;;;;4951807;28;19937;-68
2022/04/09 02:18:27;;;;;;;;;;;1.90;99.90;;;;;;4951339;28;19930;-68
2022/04/09 02:20:55;;;;;;;;;;;1.80;99.90;;;;;;4951749;28;20021;-67
2022/04/09 02:23:22;;;;;;;;;;;1.80;99.90;;;;;;4952262;28;20017;-67
2022/04/09 02:25:49;;;;;;;;;;;1.80;99.90;;;;;;4950035;29;19935;-67
2022/04/09 02:28:17;;;;;;;;;;;1.80;99.90;;;;;;4952749;28;19930;-68
2022/04/09 02:30:44;;;;;;;;;;;1.80;99.90;;;;;;4949680;29;19979;-66
2022/04/09 02:33:21;;;;;;;;;;;1.80;99.90;;;;;;4950141;29;19970;-67
2022/04/09 02:35:48;;;;;;;;;;;1.80;99.90;;;;;;4941476;29;19934;-66
2022/04/09 02:38:16;;;;;;;;;;;1.80;99.90;;;;;;4951565;28;20485;-67
2022/04/09 02:40:43;;;;;;;;;;;1.80;99.90;;;;;;4952973;29;20558;-66
2022/04/09 02:43:11;;;;;;;;;;;1.80;99.90;;;;;;4953558;29;19989;-67
2022/04/09 02:45:39;;;;;;;;;;;1.80;99.90;;;;;;4950843;29;19938;-66
2022/04/09 02:48:08;;;;;;;;;;;1.80;99.90;;;;;;4931387;29;19948;-67
2022/04/09 02:50:35;;;;;;;;;;;1.80;99.90;;;;;;4953726;29;20645;-65
2022/04/09 02:53:03;;;;;;;;;;;1.80;99.90;;;;;;4937720;29;20041;-69
2022/04/09 02:55:30;;;;;;;;;;;1.80;99.90;;;;;;4954199;29;19931;-67
2022/04/09 02:57:58;;;;;;;;;;;1.80;99.90;;;;;;4970333;28;20386;-66
2022/04/09 03:00:30;;;;;;;;;;;1.80;99.90;;;;;;4951759;29;19935;-67
2022/04/09 03:03:02;;;;;;;;;;;1.80;99.90;;;;;;4954028;29;19931;-66
2022/04/09 03:05:41;;;;;;;;;;;1.80;99.90;;;;;;4936790;29;19973;-66
2022/04/09 03:08:09;;;;;;;;;;;1.90;99.90;;;;;;4955454;28;20321;-67
2022/04/09 03:10:36;;;;;;;;;;;1.90;99.90;;;;;;4954036;28;20018;-68
2022/04/09 03:13:06;;;;;;;;;;;2.00;99.90;;;;;;4949926;29;19926;-66
2022/04/09 03:15:33;;;;;;;;;;;2.00;99.90;;;;;;4955862;28;20009;-68
2022/04/09 03:18:01;;;;;;;;;;;2.00;99.90;;;;;;4953668;29;19949;-66
2022/04/09 03:20:31;;;;;;;;;;;2.10;99.90;;;;;;4954826;29;19938;-67
2022/04/09 03:22:58;;;;;;;;;;;2.00;99.90;;;;;;4953714;29;19934;-67
2022/04/09 03:25:32;;;;;;;;;;;2.00;99.90;;;;;;4938499;29;20333;-67
2022/04/09 03:28:00;;;;;;;;;;;2.00;99.90;;;;;;4938352;29;19986;-66
2022/04/09 03:30:29;;;;;;;;;;;2.00;99.90;;;;;;4949691;29;20025;-66
2022/04/09 03:32:57;;;;;;;;;;;2.00;99.90;;;;;;4953841;29;20011;-66
2022/04/09 03:35:29;;;;;;;;;;;2.00;99.90;;;;;;4950571;29;19930;-66
2022/04/09 03:37:57;;;;;;;;;;;1.90;99.90;;;;;;4963242;28;19927;-68
2022/04/09 03:40:35;;;;;;;;;;;1.90;99.90;;;;;;4932577;29;20429;-66
2022/04/09 03:43:03;;;;;;;;;;;2.00;99.90;;;;;;4950104;29;19927;-66
2022/04/09 03:45:30;;;;;;;;;;;2.00;99.90;;;;;;4953783;29;19956;-65
2022/04/09 03:48:00;;;;;;;;;;;2.00;99.90;;;;;;4950871;29;19927;-66
2022/04/09 03:50:29;;;;;;;;;;;2.00;99.90;;;;;;4951639;29;19937;-66
2022/04/09 03:52:58;;;;;;;;;;;2.10;99.90;;;;;;4955650;28;19946;-66
2022/04/09 03:55:28;;;;;;;;;;;2.10;99.90;;;;;;4951201;29;19927;-67
2022/04/09 03:57:58;;;;;;;;;;;2.10;99.90;;;;;;4953158;29;20354;-66
2022/04/09 04:00:26;;;;;;;;;;;2.10;99.90;;;;;;4953524;29;19954;-66
2022/04/09 04:02:57;;;;;;;;;;;2.10;99.90;;;;;;4949773;29;19994;-66
2022/04/09 04:05:26;;;;;;;;;;;2.10;99.90;;;;;;4945525;29;20035;-66
2022/04/09 04:07:54;;;;;;;;;;;2.10;99.90;;;;;;4953154;28;19930;-66
2022/04/09 04:10:23;;;;;;;;;;;2.10;99.90;;;;;;4952775;29;19961;-66
2022/04/09 04:12:59;;;;;;;;;;;2.10;99.90;;;;;;4939447;29;20385;-65
2022/04/09 04:15:32;;;;;;;;;;;2.10;99.90;;;;;;4962126;28;20407;-66
2022/04/09 04:17:59;;;;;;;;;;;2.00;99.90;;;;;;4950966;29;19934;-66
2022/04/09 04:20:32;;;;;;;;;;;2.00;99.90;;;;;;4950157;29;19946;-66
2022/04/09 04:23:01;;;;;;;;;;;2.00;99.90;;;;;;4939495;29;19931;-66
2022/04/09 04:25:28;;;;;;;;;;;1.90;99.90;;;;;;4936609;29;19958;-66
2022/04/09 04:27:56;;;;;;;;;;;1.90;99.90;;;;;;4947484;28;20383;-66
2022/04/09 04:30:24;;;;;;;;;;;1.90;99.90;;;;;;4946706;29;19934;-65
2022/04/09 04:32:53;;;;;;;;;;;1.90;99.90;;;;;;4951285;29;20392;-65
2022/04/09 04:35:40;;;;;;;;;;;1.90;99.90;;;;;;4951616;28;19930;-66
2022/04/09 04:38:08;;;;;;;;;;;1.90;99.90;;;;;;4952565;29;19977;-66
2022/04/09 04:40:37;;;;;;;;;;;1.90;99.90;;;;;;4948165;29;19994;-66
2022/04/09 04:43:07;;;;;;;;;;;1.90;99.90;;;;;;4946277;29;20473;-66
2022/04/09 04:45:35;;;;;;;;;;;1.90;99.90;;;;;;4951032;29;20251;-65
2022/04/09 04:48:08;;;;;;;;;;;2.00;99.90;;;;;;4953318;29;19926;-66
2022/04/09 04:50:39;;;;;;;;;;;2.00;99.90;;;;;;4952546;29;19930;-66
2022/04/09 04:53:10;;;;;;;;;;;2.00;99.90;;;;;;4952960;28;19945;-66
2022/04/09 04:55:46;;;;;;;;;;;2.00;99.90;;;;;;4951491;29;20318;-66
2022/04/09 04:58:19;;;;;;;;;;;2.00;99.90;;;;;;4950764;29;20441;-65
2022/04/09 05:01:00;;;;;;;;;;;2.00;99.90;;;;;;4945784;28;19936;-66
2022/04/09 05:03:28;;;;;;;;;;;1.90;99.90;;;;;;4947173;28;19935;-66
2022/04/09 05:06:11;;;;;;;;;;;1.90;99.90;;;;;;4949048;29;19989;-66
2022/04/09 05:08:40;;;;;;;;;;;1.90;99.90;;;;;;4954123;28;19931;-66
2022/04/09 05:11:11;;;;;;;;;;;1.80;99.90;;;;;;4952520;29;20390;-66
2022/04/09 05:13:39;;;;;;;;;;;1.80;99.90;;;;;;4947529;29;19985;-67
2022/04/09 05:16:08;;;;;;;;;;;1.80;99.90;;;;;;4948334;29;19927;-66
2022/04/09 05:18:42;;;;;;;;;;;1.80;99.90;;;;;;4945698;28;19963;-65
2022/04/09 05:21:10;;;;;;;;;;;1.80;99.90;;;;;;4950679;28;19930;-66
2022/04/09 05:23:38;;;;;;;;;;;1.80;99.90;;;;;;4952736;28;20420;-66
2022/04/09 05:26:06;;;;;;;;;;;1.90;99.90;;;;;;4953653;28;20323;-66
2022/04/09 05:28:33;;;;;;;;;;;1.90;99.90;;;;;;4945093;29;19931;-66
2022/04/09 05:31:02;;;;;;;;;;;2.00;99.90;;;;;;4945937;29;19931;-66
2022/04/09 05:33:29;;;;;;;;;;;1.90;99.90;;;;;;4949472;29;19969;-64
2022/04/09 05:36:02;;;;;;;;;;;2.00;99.90;;;;;;4948112;29;19930;-67
2022/04/09 05:38:30;;;;;;;;;;;2.10;99.90;;;;;;4960871;28;19970;-67
2022/04/09 05:41:00;;;;;;;;;;;2.10;99.90;;;;;;4949931;28;19954;-67
2022/04/09 05:43:29;;;;;;;;;;;2.20;99.90;;;;;;4965356;28;20405;-67
2022/04/09 05:45:59;;;;;;;;;;;2.30;99.90;;;;;;4947236;29;20370;-65
2022/04/09 05:48:31;;;;;;;;;;;2.40;99.90;;;;;;4947740;29;19954;-66
2022/04/09 05:50:59;;;;;;;;;;;2.50;99.90;;;;;;4948943;28;19972;-67
2022/04/09 05:53:31;;;;;;;;;;;2.40;99.90;;;;;;4949893;29;20411;-67
2022/04/09 05:56:01;;;;;;;;;;;2.50;99.90;;;;;;4953467;28;20109;-65
2022/04/09 05:58:36;;;;;;;;;;;2.50;99.90;;;;;;4964317;28;19941;-67
2022/04/09 06:01:06;;;;;;;;;;;2.60;99.90;;;;;;4934684;29;19930;-64
2022/04/09 06:03:35;;;;;;;;;;;2.60;99.90;;;;;;4948594;29;19939;-65
2022/04/09 06:06:04;;;;;;;;;;;2.70;99.90;;;;;;4945422;29;19938;-66
2022/04/09 06:08:48;;;;;;;;;;;2.70;99.90;;;;;;4948088;29;19950;-66
2022/04/09 06:11:42;;;;;;;;;;;2.70;99.90;;;;;;4950507;28;19940;-67
2022/04/09 06:14:16;;;;;;;;;;;2.70;99.90;;;;;;4947031;29;20025;-67
2022/04/09 06:16:44;;;;;;;;;;;2.80;99.90;;;;;;4947645;29;20041;-65
2022/04/09 06:19:13;;;;;;;;;;;2.80;99.90;;;;;;4949434;29;19933;-67
2022/04/09 06:21:41;;;;;;;;;;;2.80;99.90;;;;;;4962725;28;19957;-66
2022/04/09 06:24:10;;;;;;;;;;;2.80;99.90;;;;;;4947007;29;19934;-66
2022/04/09 06:26:39;;;;;;;;;;;2.80;99.90;;;;;;4935779;29;19930;-65
2022/04/09 06:29:06;;;;;;;;;;;2.90;99.90;;;;;;4933820;29;20134;-66
2022/04/09 06:31:34;;;;;;;;;;;2.90;99.90;;;;;;4958125;28;20383;-66
2022/04/09 06:34:01;;;;;;;;;;;2.80;99.90;;;;;;4948776;28;19927;-66
2022/04/09 06:36:29;;;;;;;;;;;2.90;99.90;;;;;;4953715;28;20025;-66
2022/04/09 06:38:56;;;;;;;;;;;3.00;99.90;;;;;;4954678;28;19931;-66
2022/04/09 06:41:33;;;;;;;;;;;3.00;99.90;;;;;;4947475;29;19957;-66
2022/04/09 06:44:04;;;;;;;;;;;3.10;99.90;;;;;;4947000;29;19974;-64
2022/04/09 06:46:34;;;;;;;;;;;3.00;99.90;;;;;;4933173;29;19983;-66
2022/04/09 06:49:18;;;;;;;;;;;3.10;99.90;;;;;;4942679;29;19955;-66
2022/04/09 06:51:45;;;;;;;;;;;3.30;99.90;;;;;;4947075;29;20029;-66
2022/04/09 06:54:30;;;;;;;;;;;3.40;99.90;;;;;;4940132;29;19936;-66
2022/04/09 06:56:57;;;;;;;;;;;3.40;99.90;;;;;;4949286;29;19930;-66
2022/04/09 06:59:29;;;;;;;;;;;3.60;99.90;;;;;;4948721;29;20025;-68
2022/04/09 07:01:56;;;;;;;;;;;3.50;99.90;;;;;;4960025;28;19943;-66
2022/04/09 07:04:24;;;;;;;;;;;3.60;99.90;;;;;;4957723;28;20402;-67
2022/04/09 07:06:52;;;;;;;;;;;3.70;99.90;;;;;;4952702;28;20457;-66
2022/04/09 07:09:19;;;;;;;;;;;3.80;99.90;;;;;;4946832;28;19941;-66
2022/04/09 07:11:46;;;;;;;;;;;4.00;99.90;;;;;;4952469;28;19927;-65
2022/04/09 07:14:13;;;;;;;;;;;3.90;99.90;;;;;;4951841;28;19938;-66
2022/04/09 07:16:40;;;;;;;;;;;3.90;99.90;;;;;;4952775;28;20379;-66
2022/04/09 07:19:09;;;;;;;;;;;3.90;99.90;;;;;;4949891;29;19941;-67
2022/04/09 07:21:36;;;;;;;;;;;3.90;99.90;;;;;;4952211;28;19981;-66
2022/04/09 07:24:03;;;;;;;;;;;4.00;99.90;;;;;;4952924;28;20267;-65
2022/04/09 07:26:30;;;;;;;;;;;4.10;99.90;;;;;;4955332;28;20406;-66
2022/04/09 07:28:58;;;;;;;;;;;4.10;99.90;;;;;;4955198;29;20306;-66
2022/04/09 07:31:25;;;;;;;;;;;4.20;99.90;;;;;;4943839;28;20623;-66
2022/04/09 07:33:52;;;;;;;;;;;4.20;99.90;;;;;;4944073;28;19937;-65
2022/04/09 07:36:19;;;;;;;;;;;4.40;99.90;;;;;;4948863;29;19934;-65
2022/04/09 07:38:46;;;;;;;;;;;4.40;99.90;;;;;;4952391;29;19941;-65
2022/04/09 07:41:14;;;;;;;;;;;4.50;99.90;;;;;;4947853;28;19934;-66
2022/04/09 07:43:42;;;;;;;;;;;4.40;99.90;;;;;;4922601;29;20052;-65
2022/04/09 07:46:09;;;;;;;;;;;4.40;99.90;;;;;;4940437;29;20035;-64
2022/04/09 07:48:36;;;;;;;;;;;4.50;99.90;;;;;;4945284;29;20017;-68
2022/04/09 07:51:03;;;;;;;;;;;4.50;99.90;;;;;;4944274;28;19935;-67
2022/04/09 07:53:30;;;;;;;;;;;4.60;99.90;;;;;;4944994;29;19951;-67
2022/04/09 07:55:58;;;;;;;;;;;4.70;99.90;;;;;;4943043;28;20301;-67
2022/04/09 07:58:25;;;;;;;;;;;4.70;99.90;;;;;;4939634;29;20405;-68
2022/04/09 08:00:52;;;;;;;;;;;4.60;99.90;;;;;;4940446;28;20373;-67
2022/04/09 08:03:20;;;;;;;;;;;4.80;99.90;;;;;;4940411;28;19937;-67
2022/04/09 08:05:47;;;;;;;;;;;4.70;99.90;;;;;;4940721;29;19930;-65
2022/04/09 08:08:14;;;;;;;;;;;4.80;99.90;;;;;;4934595;29;20348;-65
2022/04/09 08:10:42;;;;;;;;;;;4.80;99.90;;;;;;4944445;28;20626;-66
2022/04/09 08:13:09;;;;;;;;;;;4.90;99.90;;;;;;4945485;28;20398;-67
2022/04/09 08:15:37;;;;;;;;;;;5.10;99.90;;;;;;4941580;28;19930;-68
2022/04/09 08:18:05;;;;;;;;;;;5.10;99.90;;;;;;4940926;29;19990;-68
2022/04/09 08:20:52;;;;;;;;;;;5.10;99.90;;;;;;4943564;29;19930;-67
2022/04/09 08:23:19;;;;;;;;;;;5.00;99.90;;;;;;4942679;28;20285;-67
2022/04/09 08:25:48;;;;;;;;;;;5.00;99.90;;;;;;4952834;28;20370;-66
2022/04/09 08:28:17;;;;;;;;;;;5.10;99.90;;;;;;4941912;28;20001;-66
2022/04/09 08:30:44;;;;;;;;;;;5.30;99.90;;;;;;4943252;28;19997;-66
2022/04/09 08:33:13;;;;;;;;;;;5.50;99.90;;;;;;4946531;28;19954;-66
2022/04/09 08:35:43;;;;;;;;;;;5.70;99.90;;;;;;4948935;28;19938;-65
2022/04/09 08:38:10;;;;;;;;;;;5.60;99.90;;;;;;4949038;28;19930;-66
2022/04/09 08:40:38;;;;;;;;;;;5.70;99.90;;;;;;4951215;28;19926;-66
2022/04/09 08:43:05;;;;;;;;;;;5.60;99.90;;;;;;4951796;28;19967;-66
2022/04/09 08:45:36;;;;;;;;;;;5.80;99.90;;;;;;4943463;28;20049;-66
2022/04/09 08:48:06;;;;;;;;;;;5.90;99.90;;;;;;4955274;28;19926;-67
2022/04/09 08:50:37;;;;;;;;;;;5.90;99.90;;;;;;4954455;28;19931;-67
2022/04/09 08:53:08;;;;;;;;;;;5.90;99.90;;;;;;4955234;28;20389;-67
2022/04/09 08:55:35;;;;;;;;;;;5.90;99.90;;;;;;4954948;28;19954;-67
2022/04/09 08:58:04;;;;;;;;;;;5.80;99.90;;;;;;4953790;28;19973;-67
2022/04/09 09:00:31;;;;;;;;;;;6.00;99.90;;;;;;4950529;28;19931;-67
2022/04/09 09:02:59;;;;;;;;;;;6.00;99.90;;;;;;4946566;29;19930;-70
2022/04/09 09:05:34;;;;;;;;;;;5.90;99.90;;;;;;4952377;28;20021;-67
2022/04/09 09:08:01;;;;;;;;;;;5.80;99.90;;;;;;4948189;28;20377;-68
2022/04/09 09:10:28;;;;;;;;;;;5.90;99.90;;;;;;4945367;28;19934;-65
2022/04/09 09:13:06;;;;;;;;;;;6.00;99.90;;;;;;4943308;28;20274;-67
2022/04/09 09:15:46;;;;;;;;;;;5.90;99.90;;;;;;4944278;29;20001;-66
2022/04/09 09:18:20;;;;;;;;;;;5.90;99.90;;;;;;4947473;29;19930;-66
2022/04/09 09:20:51;;;;;;;;;;;6.10;99.90;;;;;;4952857;28;19930;-66
2022/04/09 09:23:27;;;;;;;;;;;6.10;99.90;;;;;;4953395;28;20533;-66
2022/04/09 09:25:55;;;;;;;;;;;6.40;99.90;;;;;;4952601;28;19940;-67
2022/04/09 09:28:29;;;;;;;;;;;6.50;99.90;;;;;;4950919;28;20370;-67
2022/04/09 09:30:57;;;;;;;;;;;6.50;99.90;;;;;;4946521;28;19984;-67
2022/04/09 09:33:24;;;;;;;;;;;6.60;99.90;;;;;;4952135;28;19939;-66
2022/04/09 09:36:12;;;;;;;;;;;6.70;99.90;;;;;;4944994;29;19930;-66
2022/04/09 09:38:40;;;;;;;;;;;6.80;99.90;;;;;;4945331;28;19941;-67
2022/04/09 09:41:21;;;;;;;;;;;6.90;99.90;;;;;;4942654;29;19930;-66
2022/04/09 09:44:00;;;;;;;;;;;6.80;99.90;;;;;;4950246;28;19982;-66
2022/04/09 09:46:27;;;;;;;;;;;6.80;99.90;;;;;;4950382;28;19937;-65
2022/04/09 09:48:54;;;;;;;;;;;6.50;99.90;;;;;;4948012;28;19935;-66
2022/04/09 09:51:23;;;;;;;;;;;6.40;99.90;;;;;;4942361;29;19973;-67
2022/04/09 09:54:02;;;;;;;;;;;6.50;99.90;;;;;;4945941;28;20318;-66
2022/04/09 09:56:36;;;;;;;;;;;6.50;99.90;;;;;;4938029;28;19941;-67
2022/04/09 09:59:07;;;;;;;;;;;6.80;99.90;;;;;;4946841;29;19970;-68
2022/04/09 10:01:38;;;;;;;;;;;7.10;99.90;;;;;;4942542;29;19998;-67
2022/04/09 10:04:06;;;;;;;;;;;7.20;99.90;;;;;;4944511;28;19930;-66
2022/04/09 10:06:33;;;;;;;;;;;7.30;99.90;;;;;;4953465;28;20412;-66
2022/04/09 10:09:05;;;;;;;;;;;7.30;99.90;;;;;;4947479;28;19930;-67
2022/04/09 10:11:36;;;;;;;;;;;7.40;99.90;;;;;;4950029;29;20029;-66
2022/04/09 10:14:04;;;;;;;;;;;7.60;99.90;;;;;;4950276;28;20021;-66
2022/04/09 10:16:34;;;;;;;;;;;7.80;99.90;;;;;;4950281;28;19994;-65
2022/04/09 10:19:04;;;;;;;;;;;7.80;99.90;;;;;;4951306;28;19965;-66
2022/04/09 10:21:34;;;;;;;;;;;7.60;99.90;;;;;;4945277;28;20386;-66
2022/04/09 10:24:03;;;;;;;;;;;7.50;99.90;;;;;;4952465;28;19930;-65
2022/04/09 10:26:31;;;;;;;;;;;7.60;99.90;;;;;;4953163;28;19933;-66
2022/04/09 10:29:08;;;;;;;;;;;7.80;99.90;;;;;;4951185;29;20382;-67
2022/04/09 10:31:37;;;;;;;;;;;7.80;99.90;;;;;;4940608;28;20378;-66
2022/04/09 10:34:10;;;;;;;;;;;7.60;99.90;;;;;;4944611;28;19946;-67
2022/04/09 10:36:40;;;;;;;;;;;7.30;99.90;;;;;;4954133;28;19926;-67
2022/04/09 10:39:21;;;;;;;;;;;7.00;99.90;;;;;;4941402;28;20037;-67
2022/04/09 10:41:49;;;;;;;;;;;7.10;99.90;;;;;;4941300;29;19960;-67
2022/04/09 10:44:50;;;;;;;;;;;7.30;99.90;;;;;;4953408;28;20447;-67
2022/04/09 10:47:18;;;;;;;;;;;7.60;99.90;;;;;;4970847;28;19930;-67
2022/04/09 10:50:00;;;;;;;;;;;7.80;99.90;;;;;;4965559;28;20001;-67
2022/04/09 10:52:34;;;;;;;;;;;7.70;99.90;;;;;;4950109;29;20029;-67
2022/04/09 10:55:10;;;;;;;;;;;7.70;99.90;;;;;;4951235;28;19931;-67
2022/04/09 10:57:42;;;;;;;;;;;7.80;99.90;;;;;;4950450;28;19930;-68
2022/04/09 11:00:29;;;;;;;;;;;7.80;99.90;;;;;;4956175;28;19977;-68
2022/04/09 11:03:16;;;;;;;;;;;7.50;99.90;;;;;;4954506;28;19961;-67
2022/04/09 11:05:43;;;;;;;;;;;7.50;99.90;;;;;;4952920;28;19985;-66
2022/04/09 11:08:18;;;;;;;;;;;7.60;99.90;;;;;;4949716;28;20014;-66
2022/04/09 11:10:45;;;;;;;;;;;7.60;99.90;;;;;;4953997;28;19927;-67
2022/04/09 11:13:13;;;;;;;;;;;7.50;99.90;;;;;;4952469;28;19955;-67
2022/04/09 11:15:44;;;;;;;;;;;7.40;99.90;;;;;;4955684;28;19933;-66
2022/04/09 11:18:11;;;;;;;;;;;7.90;99.90;;;;;;4954332;28;20017;-66
2022/04/09 11:20:38;;;;;;;;;;;8.10;99.90;;;;;;4955089;28;19938;-66
2022/04/09 11:23:12;;;;;;;;;;;8.50;99.90;;;;;;4951662;28;20300;-66
2022/04/09 11:25:40;;;;;;;;;;;8.80;99.90;;;;;;4954610;28;20278;-67
2022/04/09 11:28:13;;;;;;;;;;;8.90;99.90;;;;;;4954195;28;20263;-67
2022/04/09 11:31:03;;;;;;;;;;;8.90;99.90;;;;;;4953800;28;19933;-65
2022/04/09 11:33:30;;;;;;;;;;;8.50;99.90;;;;;;4951874;28;19937;-66
2022/04/09 11:36:00;;;;;;;;;;;8.20;99.90;;;;;;4947153;28;20001;-66
2022/04/09 11:38:27;;;;;;;;;;;8.20;99.90;;;;;;4942652;28;19937;-67
2022/04/09 11:40:55;;;;;;;;;;;8.30;99.90;;;;;;4943366;29;20418;-66
2022/04/09 11:43:22;;;;;;;;;;;8.30;99.90;;;;;;4945206;28;20316;-67
2022/04/09 11:45:50;;;;;;;;;;;8.40;99.90;;;;;;4943510;29;19969;-67
2022/04/09 11:48:19;;;;;;;;;;;8.30;99.90;;;;;;4954658;28;19937;-67
2022/04/09 11:50:47;;;;;;;;;;;8.10;99.90;;;;;;4952438;28;19961;-65
2022/04/09 11:53:21;;;;;;;;;;;8.20;99.90;;;;;;4954402;28;19936;-66
2022/04/09 11:55:49;;;;;;;;;;;8.20;99.90;;;;;;4952847;28;20307;-66
2022/04/09 11:58:19;;;;;;;;;;;8.30;99.90;;;;;;4953916;28;19931;-67
2022/04/09 12:00:47;;;;;;;;;;;8.10;99.90;;;;;;4952727;28;19969;-67
2022/04/09 12:03:14;;;;;;;;;;;8.60;99.90;;;;;;4953588;28;19938;-65
2022/04/09 12:05:46;;;;;;;;;;;9.10;99.90;;;;;;4953304;28;19932;-66
2022/04/09 12:08:15;;;;;;;;;;;9.50;99.90;;;;;;4955087;28;20704;-67
2022/04/09 12:11:00;;;;;;;;;;;9.60;99.90;;;;;;4954274;28;19930;-67
2022/04/09 12:13:35;;;;;;;;;;;9.40;99.90;;;;;;4941461;29;19936;-67
2022/04/09 12:16:08;;;;;;;;;;;9.50;99.90;;;;;;4943683;28;20029;-67
2022/04/09 12:18:36;;;;;;;;;;;9.80;99.90;;;;;;4939427;28;19942;-67
2022/04/09 12:21:17;;;;;;;;;;;10.00;99.90;;;;;;4947544;29;19953;-67
2022/04/09 12:23:46;;;;;;;;;;;9.70;99.90;;;;;;4946811;29;19934;-67
2022/04/09 12:26:32;;;;;;;;;;;10.00;99.90;;;;;;4949021;28;19957;-67
2022/04/09 12:29:12;;;;;;;;;;;10.40;99.90;;;;;;4943698;28;19937;-66
2022/04/09 12:31:40;;;;;;;;;;;10.40;99.90;;;;;;4947234;28;20525;-65
2022/04/09 12:34:08;;;;;;;;;;;10.20;99.90;;;;;;4945418;28;19936;-67
2022/04/09 12:36:41;;;;;;;;;;;10.20;99.90;;;;;;4953220;28;20416;-66
2022/04/09 12:39:24;;;;;;;;;;;10.00;99.90;;;;;;4952594;28;19953;-66
2022/04/09 12:41:52;;;;;;;;;;;9.40;99.90;;;;;;4952260;28;19942;-66
2022/04/09 12:44:26;;;;;;;;;;;9.20;99.90;;;;;;4954431;28;19930;-67
2022/04/09 12:46:53;;;;;;;;;;;9.30;99.90;;;;;;4954527;28;20374;-66
2022/04/09 12:49:32;;;;;;;;;;;9.70;99.90;;;;;;4968650;28;19930;-67
2022/04/09 12:51:59;;;;;;;;;;;10.20;99.90;;;;;;4948240;28;19930;-66
2022/04/09 12:54:28;;;;;;;;;;;10.70;99.90;;;;;;4942729;28;20456;-66
2022/04/09 12:56:56;;;;;;;;;;;10.60;99.90;;;;;;4951416;28;19935;-66
2022/04/09 12:59:23;;;;;;;;;;;10.10;99.90;;;;;;4953244;28;19930;-67
2022/04/09 13:01:52;;;;;;;;;;;9.80;99.90;;;;;;4951271;28;20354;-67
2022/04/09 13:04:19;;;;;;;;;;;9.80;99.90;;;;;;4952661;28;19926;-66
2022/04/09 13:06:46;;;;;;;;;;;10.20;99.90;;;;;;4948769;29;19930;-65
2022/04/09 13:09:13;;;;;;;;;;;10.80;99.90;;;;;;4946262;29;20390;-66
2022/04/09 13:11:41;;;;;;;;;;;10.60;99.90;;;;;;4951653;28;19935;-65
2022/04/09 13:14:08;;;;;;;;;;;10.90;99.90;;;;;;4951200;28;19930;-65
2022/04/09 13:16:35;;;;;;;;;;;11.40;99.90;;;;;;4951240;28;20634;-65
2022/04/09 13:19:02;;;;;;;;;;;11.10;99.90;;;;;;4966773;28;19931;-66
2022/04/09 13:21:30;;;;;;;;;;;11.80;99.90;;;;;;4949293;28;19938;-66
2022/04/09 13:23:57;;;;;;;;;;;13.10;99.90;;;;;;4948874;28;19927;-66
2022/04/09 13:26:24;;;;;;;;;;;12.90;99.90;;;;;;4952326;28;20021;-66
2022/04/09 13:28:51;;;;;;;;;;;13.00;99.90;;;;;;4950001;28;19930;-67
2022/04/09 13:31:19;;;;;;;;;;;14.30;99.90;;;;;;4950617;28;20422;-67
2022/04/09 13:33:46;;;;;;;;;;;14.50;99.90;;;;;;4952327;28;19934;-68
2022/04/09 13:36:14;;;;;;;;;;;14.40;99.90;;;;;;4951773;28;19931;-68
2022/04/09 13:38:41;;;;;;;;;;;14.80;99.90;;;;;;4952254;28;20267;-67
2022/04/09 13:41:09;;;;;;;;;;;15.30;99.90;;;;;;4945411;28;20297;-66
2022/04/09 13:43:36;;;;;;;;;;;16.50;99.90;;;;;;4951383;28;19957;-68
2022/04/09 13:46:05;;;;;;;;;;;15.20;99.40;;;;;;4947779;29;20013;-66
2022/04/09 13:48:32;;;;;;;;;;;13.40;99.90;;;;;;4952211;28;19973;-67
2022/04/09 13:51:00;;;;;;;;;;;12.70;99.90;;;;;;4949403;28;19941;-66
2022/04/09 13:53:27;;;;;;;;;;;13.60;99.90;;;;;;4950715;28;19973;-67
2022/04/09 13:55:55;;;;;;;;;;;13.40;99.90;;;;;;4946293;29;19962;-67
2022/04/09 13:58:22;;;;;;;;;;;12.10;99.90;;;;;;4944800;29;19937;-65
2022/04/09 14:00:49;;;;;;;;;;;12.00;99.90;;;;;;4942461;28;19931;-66
2022/04/09 14:03:17;;;;;;;;;;;12.10;99.90;;;;;;4948787;28;19931;-68
2022/04/09 14:05:44;;;;;;;;;;;12.60;99.90;;;;;;4949452;28;19926;-67
2022/04/09 14:08:11;;;;;;;;;;;13.30;99.90;;;;;;4951971;28;20382;-68
2022/04/09 14:10:43;;;;;;;;;;;13.80;99.90;;;;;;4942687;28;20394;-66
2022/04/09 14:13:11;;;;;;;;;;;15.10;99.90;;;;;;4943478;28;20588;-66
2022/04/09 14:15:38;;;;;;;;;;;17.30;98.90;;;;;;4950136;28;20440;-66
2022/04/09 14:18:05;;;;;;;;;;;17.70;97.10;;;;;;4949826;28;20279;-66
2022/04/09 14:20:32;;;;;;;;;;;17.50;95.50;;;;;;4949485;28;19933;-65
2022/04/09 14:23:01;;;;;;;;;;;15.80;96.70;;;;;;4948215;28;19930;-67
2022/04/09 14:25:28;;;;;;;;;;;14.30;98.40;;;;;;4949779;28;19990;-67
2022/04/09 14:27:57;;;;;;;;;;;14.00;99.90;;;;;;4949443;28;19935;-66
2022/04/09 14:30:24;;;;;;;;;;;12.90;99.90;;;;;;4951108;28;19930;-66
2022/04/09 14:32:52;;;;;;;;;;;12.20;99.90;;;;;;4951680;28;20381;-65
2022/04/09 14:35:19;;;;;;;;;;;11.50;99.90;;;;;;4954900;28;20001;-66
2022/04/09 14:37:47;;;;;;;;;;;10.80;99.90;;;;;;4954196;28;20406;-66
2022/04/09 14:40:15;;;;;;;;;;;10.20;99.90;;;;;;4954383;28;19996;-66
2022/04/09 14:42:42;;;;;;;;;;;10.00;99.90;;;;;;4949308;28;19930;-65
2022/04/09 14:45:12;;;;;;;;;;;9.30;99.90;;;;;;4954127;28;20042;-65